Time;durP1;ratioP1;P1;durP2;ratioP2;P2;SDS_P1;SDS_P2;PMS_P1;PMS_P2;Temp;Humidity;BMP_temperature;BMP_pressure;BME280_temperature;BME280_humidity;BME280_pressure;Samples;Min_cycle;Max_cycle;Signal;HPM_P1;HPM_P2
2023/02/14 11:02:46;;;;;;;;;30.00;26.50;;;;;18.48;46.35;102604.91;4987311;28;45527;-68
2023/02/14 11:05:28;;;;;;;;;31.75;25.25;;;;;18.83;46.08;102608.28;4972412;28;45514;-66
2023/02/14 11:07:55;;;;;;;;;35.75;25.50;;;;;19.18;46.24;102608.06;4974092;28;45381;-69
2023/02/14 11:10:26;;;;;;;;;32.00;26.75;;;;;19.49;46.18;102597.25;4969893;28;45439;-68
2023/02/14 11:12:52;;;;;;;;;36.75;30.25;;;;;19.81;46.78;102597.94;4969880;28;46190;-66
2023/02/14 11:15:20;;;;;;;;;611.25;456.25;;;;;20.12;46.77;102589.72;4967095;28;64247;-66
2023/02/14 11:17:46;;;;;;;;;138.75;113.50;;;;;20.39;45.72;102592.22;4968549;28;45445;-65
2023/02/14 11:20:22;;;;;;;;;75.50;63.75;;;;;20.23;42.50;102578.66;4969842;28;45414;-70
2023/02/14 11:22:48;;;;;;;;;103.25;82.00;;;;;20.09;42.36;102573.88;4968904;28;45574;-75
2023/02/14 11:25:25;;;;;;;;;140.50;107.50;;;;;20.22;43.59;102580.47;4969953;28;45426;-73
2023/02/14 11:28:01;;;;;;;;;142.50;112.00;;;;;20.42;43.57;102571.69;4969805;28;46942;-70
2023/02/14 11:30:32;;;;;;;;;119.50;107.00;;;;;20.61;43.78;102565.63;4970528;28;46326;-72
2023/02/14 11:32:57;;;;;;;;;130.25;103.75;;;;;20.81;43.39;102562.22;4968210;28;45459;-73
2023/02/14 11:35:27;;;;;;;;;115.25;97.00;;;;;20.98;43.52;102559.75;4965881;28;67001;-65
2023/02/14 11:37:54;;;;;;;;;113.50;91.25;;;;;21.15;42.80;102548.34;4980337;28;45455;-67
2023/02/14 11:40:32;;;;;;;;;74.00;56.25;;;;;21.30;43.35;102554.84;4969236;28;45474;-72
2023/02/14 11:43:12;;;;;;;;;67.25;52.75;;;;;20.95;40.96;102551.88;4970919;28;45648;-79
2023/02/14 11:45:39;;;;;;;;;70.50;53.75;;;;;20.34;40.58;102546.34;4973238;28;45433;-72
2023/02/14 11:48:21;;;;;;;;;70.50;52.00;;;;;19.82;40.64;102539.44;4964160;28;45428;-69
2023/02/14 11:51:15;;;;;;;;;66.25;51.00;;;;;19.39;40.40;102540.97;4977314;28;45439;-66
2023/02/14 11:53:55;;;;;;;;;65.00;49.50;;;;;19.13;39.64;102533.91;4972195;28;66733;-68
2023/02/14 11:56:22;;;;;;;;;59.75;46.00;;;;;19.17;40.10;102527.56;4969554;28;45437;-70
2023/02/14 11:58:55;;;;;;;;;53.00;41.00;;;;;19.31;40.36;102525.28;4966837;28;45428;-70
2023/02/14 12:01:32;;;;;;;;;52.75;40.00;;;;;19.54;40.49;102526.25;4972011;28;45615;-67
2023/02/14 12:04:02;;;;;;;;;44.75;36.50;;;;;19.75;40.28;102514.00;4970904;28;45406;-67
2023/02/14 12:06:30;;;;;;;;;44.00;33.00;;;;;19.95;40.15;102518.56;4969138;28;45662;-67
2023/02/14 12:09:21;;;;;;;;;34.75;31.25;;;;;20.16;40.21;102508.03;4983161;27;45522;-68
2023/02/14 12:11:57;;;;;;;;;38.00;30.75;;;;;20.34;40.58;102501.13;4965569;28;45419;-67
2023/02/14 12:14:24;;;;;;;;;30.75;28.00;;;;;20.53;40.52;102509.25;4956040;28;46236;-67
2023/02/14 12:17:04;;;;;;;;;32.00;26.50;;;;;20.65;40.11;102500.78;4973291;28;45447;-67
2023/02/14 12:20:00;;;;;;;;;31.25;26.50;;;;;20.84;39.93;102493.78;4954673;28;46155;-68
2023/02/14 12:22:30;;;;;;;;;25.00;24.25;;;;;20.98;40.14;102486.97;4948918;28;45181;-68
2023/02/14 12:24:58;;;;;;;;;25.75;23.25;;;;;21.13;39.74;102490.78;4954892;28;45460;-68
2023/02/14 12:27:27;;;;;;;;;32.75;28.00;;;;;21.23;39.50;102486.81;4952514;28;45491;-69
2023/02/14 12:30:00;;;;;;;;;29.50;23.75;;;;;21.36;39.64;102487.13;4957099;28;45705;-68
2023/02/14 12:32:27;;;;;;;;;28.00;22.25;;;;;21.48;39.27;102485.72;4957839;28;45269;-68
2023/02/14 12:35:17;;;;;;;;;26.00;21.25;;;;;21.57;39.72;102482.66;4955204;28;47633;-68
2023/02/14 12:37:52;;;;;;;;;26.50;20.50;;;;;21.67;39.82;102475.94;4951385;28;45443;-67
2023/02/14 12:40:39;;;;;;;;;27.00;24.25;;;;;21.76;39.37;102464.88;4957416;28;47601;-68
2023/02/14 12:43:10;;;;;;;;;25.50;21.00;;;;;21.84;39.92;102458.34;4965643;28;45444;-68
2023/02/14 12:45:54;;;;;;;;;31.75;21.50;;;;;21.91;39.28;102457.97;4958393;28;45569;-68
2023/02/14 12:49:03;;;;;;;;;15.00;6.25;;;;;21.97;39.58;102452.34;4954131;28;45516;-67
2023/02/14 12:51:33;;;;;;;;;23.00;17.50;;;;;22.03;39.28;102443.19;4957853;28;45479;-68
2023/02/14 12:54:20;;;;;;;;;28.00;23.00;;;;;22.10;39.24;102446.44;4951435;28;45343;-69
2023/02/14 12:56:54;;;;;;;;;26.00;24.75;;;;;22.13;39.02;102436.47;4956851;28;46412;-68
2023/02/14 13:00:01;;;;;;;;;21.25;17.00;;;;;22.18;38.98;102439.75;4957184;28;45550;-68
2023/02/14 13:02:37;;;;;;;;;30.00;23.50;;;;;22.23;39.19;102434.22;4958083;28;45534;-68
2023/02/14 13:05:11;;;;;;;;;23.50;18.25;;;;;22.27;38.69;102434.94;4946925;28;45314;-69
2023/02/14 13:07:55;;;;;;;;;24.25;22.00;;;;;22.30;38.71;102424.13;4952560;28;46637;-68
2023/02/14 13:11:04;;;;;;;;;29.75;22.00;;;;;22.33;38.76;102416.00;4952188;28;46883;-68
2023/02/14 13:13:32;;;;;;;;;23.25;21.50;;;;;22.36;38.50;102411.38;4945618;28;45470;-69
2023/02/14 13:16:06;;;;;;;;;21.00;18.00;;;;;22.36;38.55;102403.38;4953894;28;45459;-68
2023/02/14 13:18:47;;;;;;;;;28.25;22.25;;;;;22.43;38.38;102405.72;4951643;28;45559;-68
2023/02/14 13:21:16;;;;;;;;;24.25;22.00;;;;;22.45;38.68;102406.50;4968242;28;45494;-68
2023/02/14 13:23:51;;;;;;;;;26.00;21.75;;;;;22.47;38.41;102401.94;4963634;28;45446;-69
2023/02/14 13:26:20;;;;;;;;;27.75;22.75;;;;;22.50;38.39;102401.78;4945010;28;45547;-68
2023/02/14 13:28:51;;;;;;;;;29.50;24.75;;;;;22.52;38.20;102390.13;4956852;28;48097;-68
2023/02/14 13:31:18;;;;;;;;;23.00;20.50;;;;;22.54;38.11;102393.56;4980390;28;45425;-69
2023/02/14 13:33:51;;;;;;;;;21.00;19.50;;;;;22.56;38.16;102383.66;4953854;28;45445;-68
2023/02/14 13:36:17;;;;;;;;;29.75;22.75;;;;;22.58;38.11;102383.59;4948225;28;45380;-68
2023/02/14 13:38:48;;;;;;;;;22.75;19.00;;;;;22.62;38.29;102385.16;4944873;28;45470;-67
2023/02/14 13:41:14;;;;;;;;;21.50;19.75;;;;;22.64;38.25;102375.25;4958695;28;45266;-68
2023/02/14 13:43:48;;;;;;;;;25.00;20.75;;;;;22.66;37.97;102370.69;4954146;28;45288;-68
2023/02/14 13:46:36;;;;;;;;;20.75;18.75;;;;;22.69;38.28;102377.69;4951394;28;45485;-68
2023/02/14 13:49:24;;;;;;;;;20.75;16.50;;;;;22.72;38.37;102366.88;4954243;28;45632;-68
2023/02/14 13:51:52;;;;;;;;;23.75;21.00;;;;;22.69;37.79;102359.88;4958834;28;45537;-68
2023/02/14 13:54:34;;;;;;;;;21.75;19.25;;;;;22.73;37.66;102363.25;4954962;28;45368;-68
2023/02/14 13:57:03;;;;;;;;;24.25;20.25;;;;;22.73;37.95;102355.22;4955106;28;45483;-68
2023/02/14 13:59:33;;;;;;;;;19.50;18.25;;;;;22.80;38.24;102364.63;4966185;28;45571;-67
2023/02/14 14:02:25;;;;;;;;;19.25;17.75;;;;;22.81;37.68;102355.69;4954784;28;46234;-69
2023/02/14 14:04:50;;;;;;;;;17.00;16.50;;;;;22.82;38.14;102354.75;4946007;28;45426;-69
2023/02/14 14:07:28;;;;;;;;;26.75;21.00;;;;;22.85;37.82;102351.06;4956332;28;52935;-68
2023/02/14 14:09:56;;;;;;;;;23.50;19.00;;;;;22.86;38.29;102342.97;4952751;28;45762;-68
2023/02/14 14:12:22;;;;;;;;;21.00;17.50;;;;;22.88;37.69;102348.25;4958676;28;45191;-68
2023/02/14 14:15:09;;;;;;;;;21.25;19.00;;;;;22.89;37.52;102341.94;4953303;28;45566;-68
2023/02/14 14:17:36;;;;;;;;;21.00;19.25;;;;;22.90;37.82;102338.34;4956186;28;45323;-68
2023/02/14 14:20:23;;;;;;;;;24.75;17.50;;;;;22.91;37.68;102340.03;4955654;28;45398;-68
2023/02/14 14:22:59;;;;;;;;;23.50;20.75;;;;;22.92;37.92;102334.63;4952414;28;45252;-68
2023/02/14 14:25:32;;;;;;;;;22.75;17.75;;;;;22.95;37.69;102333.63;4959698;28;45501;-66
2023/02/14 14:27:59;;;;;;;;;20.75;18.50;;;;;22.97;37.33;102336.19;4947428;28;46025;-65
2023/02/14 14:30:29;;;;;;;;;25.50;21.25;;;;;22.97;37.40;102322.84;4958135;28;45329;-66
2023/02/14 14:32:55;;;;;;;;;22.25;18.75;;;;;23.00;37.53;102323.53;4953766;28;45439;-66
2023/02/14 14:35:22;;;;;;;;;18.00;18.00;;;;;23.00;37.08;102328.88;4949322;28;45320;-66
2023/02/14 14:37:56;;;;;;;;;24.75;20.25;;;;;23.01;37.62;102327.06;4952927;28;45533;-66
2023/02/14 14:40:24;;;;;;;;;23.00;19.50;;;;;23.03;37.24;102322.50;4959503;28;45773;-66
2023/02/14 14:42:50;;;;;;;;;26.25;21.25;;;;;23.02;36.94;102323.44;4955917;28;45919;-66
2023/02/14 14:45:21;;;;;;;;;18.50;16.50;;;;;;;;4954197;28;45446;-66
2023/02/14 14:47:47;;;;;;;;;23.25;20.00;;;;;;;;4955284;28;45608;-66
2023/02/14 14:50:23;;;;;;;;;26.00;20.25;;;;;23.05;37.03;102315.31;4957383;28;45593;-66
2023/02/14 14:52:50;;;;;;;;;24.00;20.25;;;;;23.05;37.19;102315.31;4953632;28;45459;-66
2023/02/14 14:55:18;;;;;;;;;27.25;20.25;;;;;;;;4968701;28;45315;-67
2023/02/14 14:57:51;;;;;;;;;22.75;19.75;;;;;22.98;36.61;102298.72;4959707;28;45928;-67
2023/02/14 15:00:32;;;;;;;;;19.25;17.75;;;;;23.05;36.77;102316.16;4952124;28;46257;-66
2023/02/14 15:02:57;;;;;;;;;19.50;18.00;;;;;;;;4952226;27;46302;-66
2023/02/14 15:05:26;;;;;;;;;19.00;16.00;;;;;23.05;36.60;102305.47;4961711;28;45544;-66
2023/02/14 15:07:52;;;;;;;;;21.00;16.00;;;;;23.05;36.83;102305.47;4951426;28;45356;-66
2023/02/14 15:10:23;;;;;;;;;16.75;15.25;;;;;23.06;36.73;102301.00;4970645;28;46341;-65
2023/02/14 15:15:33;;;;;;;;;18.00;16.00;;;;;23.06;36.89;102298.34;4957224;28;45686;-66
2023/02/14 15:18:04;;;;;;;;;19.25;16.00;;;;;23.08;37.19;102301.78;4959213;28;47089;-66
2023/02/14 15:20:30;;;;;;;;;18.25;14.00;;;;;23.07;37.50;102300.06;4944064;28;48235;-66
2023/02/14 15:22:55;;;;;;;;;21.75;16.25;;;;;23.08;37.33;102296.44;4957985;28;45999;-66
2023/02/14 15:25:35;;;;;;;;;21.00;17.50;;;;;23.08;36.97;102291.09;4937987;28;49768;-66
2023/02/14 15:28:01;;;;;;;;;22.50;15.75;;;;;23.08;37.24;102289.28;4967163;28;45513;-66
2023/02/14 15:30:33;;;;;;;;;20.00;16.50;;;;;23.09;37.03;102290.19;4956401;28;46170;-66
2023/02/14 15:33:03;;;;;;;;;14.00;13.25;;;;;23.08;37.03;102281.28;4954512;28;45327;-66
2023/02/14 15:35:32;;;;;;;;;19.25;17.00;;;;;23.10;37.04;102281.19;4954691;28;45451;-66
2023/02/14 15:37:59;;;;;;;;;20.50;16.00;;;;;23.11;36.92;102283.78;4950758;28;45490;-66
2023/02/14 15:40:27;;;;;;;;;20.50;17.00;;;;;23.11;37.17;102277.59;4953152;28;47419;-65
2023/02/14 15:42:56;;;;;;;;;14.50;13.00;;;;;23.11;36.71;102278.44;4953879;28;45729;-65
2023/02/14 15:45:26;;;;;;;;;16.00;16.00;;;;;23.12;37.08;102272.16;4950186;28;45665;-66
2023/02/14 15:47:58;;;;;;;;;22.75;17.00;;;;;23.13;36.88;102273.88;4950608;28;45400;-66
2023/02/14 15:50:29;;;;;;;;;17.50;14.00;;;;;23.14;36.78;102269.38;4958888;28;45531;-66
2023/02/14 15:53:01;;;;;;;;;21.25;16.00;;;;;23.15;36.78;102265.78;4953820;28;45690;-66
2023/02/14 15:55:27;;;;;;;;;22.25;16.25;;;;;23.16;36.61;102264.84;4958102;28;45392;-66
2023/02/14 15:57:57;;;;;;;;;16.75;15.50;;;;;23.17;36.89;102255.03;4955592;28;45452;-66
2023/02/14 16:00:23;;;;;;;;;21.50;16.00;;;;;23.19;36.62;102259.31;4970631;28;45676;-66
2023/02/14 16:02:59;;;;;;;;;20.50;17.50;;;;;23.19;36.53;102259.31;4953841;28;45348;-66
2023/02/14 16:05:26;;;;;;;;;20.50;16.75;;;;;23.19;36.42;102251.31;4958821;28;45517;-67
2023/02/14 16:08:04;;;;;;;;;18.25;16.50;;;;;23.21;36.27;102252.06;4956177;28;45427;-67
2023/02/14 16:10:31;;;;;;;;;18.75;15.25;;;;;23.21;36.46;102257.41;4952835;28;45542;-66
2023/02/14 16:13:05;;;;;;;;;20.50;18.25;;;;;23.20;36.84;102249.50;4957018;28;46069;-66
2023/02/14 16:15:35;;;;;;;;;14.75;14.25;;;;;23.22;36.39;102258.28;4951159;28;45910;-67
2023/02/14 16:18:04;;;;;;;;;18.00;17.00;;;;;23.21;36.15;102253.88;4959531;28;47148;-66
2023/02/14 16:20:39;;;;;;;;;19.25;17.25;;;;;23.21;36.44;102251.22;4955913;28;47264;-67
2023/02/14 16:23:26;;;;;;;;;21.25;19.50;;;;;23.21;36.53;102243.19;4956195;28;46659;-67
2023/02/14 16:25:52;;;;;;;;;24.25;18.50;;;;;23.18;36.23;102236.25;4957495;28;45553;-67
2023/02/14 16:28:18;;;;;;;;;18.00;15.00;;;;;23.20;36.38;102244.16;4954646;28;45497;-68
2023/02/14 16:30:46;;;;;;;;;19.25;16.25;;;;;23.20;36.35;102241.50;4958801;28;45485;-66
2023/02/14 16:33:20;;;;;;;;;17.00;15.25;;;;;23.18;36.05;102240.69;4955846;28;45548;-66
2023/02/14 16:35:47;;;;;;;;;19.75;18.25;;;;;23.19;36.14;102242.44;4969655;28;45570;-66
2023/02/14 16:38:15;;;;;;;;;19.25;16.25;;;;;23.19;36.33;102242.44;4952356;28;45592;-66
2023/02/14 16:40:42;;;;;;;;;17.50;15.50;;;;;23.18;36.39;102241.59;4961880;28;45992;-67
2023/02/14 16:43:12;;;;;;;;;21.25;16.75;;;;;23.17;36.26;102241.66;4955576;28;45953;-67
2023/02/14 16:45:37;;;;;;;;;19.50;16.00;;;;;23.16;35.99;102245.28;4958049;28;45463;-67
2023/02/14 16:48:02;;;;;;;;;22.50;17.75;;;;;23.18;35.84;102243.38;4950550;28;64352;-69
2023/02/14 16:50:28;;;;;;;;;20.75;17.75;;;;;23.17;36.14;102242.53;4957188;28;45454;-67
2023/02/14 16:52:56;;;;;;;;;14.75;12.50;;;;;23.18;36.15;102243.38;4954844;28;59030;-67
2023/02/14 16:55:22;;;;;;;;;17.50;13.25;;;;;23.19;36.59;102232.59;4929916;28;45605;-68
2023/02/14 16:57:49;;;;;;;;;18.75;14.00;;;;;23.20;36.32;102239.69;4951649;28;45526;-67
2023/02/14 17:00:15;;;;;;;;;15.50;13.75;;;;;23.20;36.04;102242.34;4958806;28;47400;-68
2023/02/14 17:02:41;;;;;;;;;18.00;14.25;;;;;23.22;36.29;102237.78;4964170;28;45489;-70
2023/02/14 17:05:07;;;;;;;;;14.75;14.00;;;;;23.23;36.35;102244.84;4949812;28;45308;-70
2023/02/14 17:07:33;;;;;;;;;14.25;13.75;;;;;23.22;36.60;102236.94;4955131;28;45361;-67
2023/02/14 17:10:03;;;;;;;;;22.00;19.00;;;;;23.24;36.24;102243.91;4955456;28;46233;-67
2023/02/14 17:12:31;;;;;;;;;19.00;18.50;;;;;23.24;36.02;102237.69;4942664;28;46195;-67
2023/02/14 17:15:00;;;;;;;;;22.25;17.50;;;;;23.24;35.69;102243.91;4953713;28;46894;-67
2023/02/14 17:17:26;;;;;;;;;17.00;16.75;;;;;23.24;36.24;102241.22;4954193;28;45640;-67
2023/02/14 17:19:51;;;;;;;;;17.00;16.50;;;;;23.25;35.72;102244.78;4952720;28;55870;-67
2023/02/14 17:22:17;;;;;;;;;17.75;17.75;;;;;23.23;36.03;102242.19;4944077;28;57585;-67
2023/02/14 17:24:42;;;;;;;;;18.00;16.25;;;;;23.23;35.63;102247.53;4955456;28;45502;-67
2023/02/14 17:27:08;;;;;;;;;19.75;17.75;;;;;23.22;36.22;102248.47;4958824;28;45411;-67
2023/02/14 17:29:34;;;;;;;;;19.00;16.50;;;;;23.23;36.23;102247.53;4952842;28;47434;-66
2023/02/14 17:31:59;;;;;;;;;18.50;14.00;;;;;23.23;35.88;102250.19;4960849;28;45359;-66
2023/02/14 17:34:24;;;;;;;;;19.50;18.00;;;;;23.23;35.76;102249.31;4954146;28;63600;-66
2023/02/14 17:36:50;;;;;;;;;16.50;14.50;;;;;23.22;35.83;102247.63;4955451;28;45467;-67
2023/02/14 17:39:17;;;;;;;;;23.00;18.00;;;;;23.22;35.76;102250.28;4953313;28;45522;-68
2023/02/14 17:41:42;;;;;;;;;22.75;19.25;;;;;23.20;36.11;102239.69;4957077;28;45319;-69
2023/02/14 17:44:07;;;;;;;;;19.00;16.00;;;;;23.23;35.93;102249.31;4951497;28;61070;-66
2023/02/14 17:46:33;;;;;;;;;19.25;17.25;;;;;23.23;36.20;102242.19;4939908;28;64988;-66
2023/02/14 17:49:01;;;;;;;;;22.50;18.50;;;;;23.22;35.83;102232.44;4955137;28;45930;-67
2023/02/14 17:51:26;;;;;;;;;18.50;18.00;;;;;23.21;35.93;102236.03;4957565;28;45413;-67
2023/02/14 17:53:52;;;;;;;;;18.75;18.75;;;;;23.22;35.90;102234.25;4954391;28;45474;-67
2023/02/14 17:56:23;;;;;;;;;23.50;20.00;;;;;23.20;35.96;102234.34;4954989;28;57504;-70
2023/02/14 17:58:50;;;;;;;;;22.50;17.50;;;;;23.21;36.12;102233.38;4953594;28;45361;-70
2023/02/14 18:01:18;;;;;;;;;22.75;18.25;;;;;23.21;35.92;102232.53;4957318;28;46101;-66
2023/02/14 18:03:45;;;;;;;;;17.50;17.50;;;;;23.20;35.76;102221.00;4952558;28;45514;-66
2023/02/14 18:06:10;;;;;;;;;25.25;22.00;;;;;23.19;35.92;102232.59;4951362;28;45371;-67
2023/02/14 18:08:38;;;;;;;;;29.25;21.50;;;;;23.18;35.71;102233.56;4951602;28;45460;-66
2023/02/14 18:11:07;;;;;;;;;23.00;21.50;;;;;23.18;35.91;102227.34;4958855;28;45418;-66
2023/02/14 18:13:33;;;;;;;;;26.25;21.00;;;;;23.17;35.80;102225.63;4944011;28;45326;-65
2023/02/14 18:16:04;;;;;;;;;15.75;15.75;;;;;23.15;36.24;102228.41;4956998;28;45366;-71
2023/02/14 18:18:30;;;;;;;;;23.75;21.00;;;;;23.17;35.87;102229.16;4950812;28;45514;-65
2023/02/14 18:20:57;;;;;;;;;21.50;18.75;;;;;23.17;35.94;102228.31;4957762;28;45480;-66
2023/02/14 18:23:23;;;;;;;;;23.25;20.75;;;;;23.17;36.04;102226.50;4944512;28;45474;-66
2023/02/14 18:25:50;;;;;;;;;20.25;17.00;;;;;23.19;36.03;102229.09;4955321;28;45628;-66
2023/02/14 18:28:16;;;;;;;;;15.25;13.75;;;;;23.20;36.14;102220.13;4951683;28;45458;-66
2023/02/14 18:30:42;;;;;;;;;18.50;17.50;;;;;23.21;35.97;102221.84;4960725;28;45996;-66
2023/02/14 18:33:07;;;;;;;;;21.75;17.25;;;;;23.22;35.55;102221.75;4953030;28;45683;-66
2023/02/14 18:35:34;;;;;;;;;23.00;18.75;;;;;23.24;35.79;102222.53;4945399;28;48949;-66
2023/02/14 18:37:59;;;;;;;;;21.75;19.75;;;;;23.25;36.03;102215.41;4947026;28;45593;-66
2023/02/14 18:40:26;;;;;;;;;22.25;16.25;;;;;23.26;35.66;102215.28;4959792;28;45395;-66
2023/02/14 18:42:51;;;;;;;;;20.50;19.50;;;;;23.26;35.76;102211.75;4943320;28;45372;-66
2023/02/14 18:45:16;;;;;;;;;22.75;19.00;;;;;23.27;35.55;102217.00;4948763;28;45382;-66
2023/02/14 18:47:42;;;;;;;;;24.00;19.50;;;;;23.27;35.70;102210.81;4955272;28;60545;-66
2023/02/14 18:50:07;;;;;;;;;21.75;20.75;;;;;23.27;35.83;102213.50;4953271;28;68614;-66
2023/02/14 18:52:34;;;;;;;;;27.25;21.75;;;;;23.26;35.72;102206.41;4948678;28;45296;-66
2023/02/14 18:55:00;;;;;;;;;30.50;22.50;;;;;23.26;35.67;102209.94;4962592;28;45561;-66
2023/02/14 18:57:25;;;;;;;;;24.50;21.25;;;;;23.27;35.92;102214.34;4938830;28;46142;-66
2023/02/14 18:59:50;;;;;;;;;23.50;18.50;;;;;23.26;35.39;102211.75;4954475;28;45414;-66
2023/02/14 19:02:16;;;;;;;;;22.00;19.25;;;;;23.24;35.81;102208.31;4945753;28;53755;-65
2023/02/14 19:04:41;;;;;;;;;23.25;20.50;;;;;23.24;35.84;102211.00;4947462;28;55044;-66
2023/02/14 19:07:07;;;;;;;;;27.25;23.25;;;;;23.26;35.89;102211.75;4957650;28;45257;-66
2023/02/14 19:09:37;;;;;;;;;20.00;19.50;;;;;23.24;35.91;102208.31;4955868;28;45497;-66
2023/02/14 19:12:07;;;;;;;;;26.50;21.50;;;;;23.24;35.94;102206.50;4952906;28;45334;-66
2023/02/14 19:14:32;;;;;;;;;22.00;20.25;;;;;23.23;35.36;102203.91;4953601;28;45446;-65
2023/02/14 19:16:57;;;;;;;;;23.00;18.25;;;;;23.22;36.19;102205.72;4941180;28;48002;-66
2023/02/14 19:19:23;;;;;;;;;23.50;19.75;;;;;23.24;35.82;102206.50;4950432;28;45227;-65
2023/02/14 19:21:48;;;;;;;;;22.75;19.25;;;;;23.24;35.62;102209.16;4941882;28;45249;-67
2023/02/14 19:24:15;;;;;;;;;25.00;18.25;;;;;23.23;35.67;102207.47;4949324;28;45344;-64
2023/02/14 19:26:41;;;;;;;;;26.50;22.00;;;;;23.22;35.54;102205.72;4954266;28;46979;-65
2023/02/14 19:29:11;;;;;;;;;28.50;20.25;;;;;23.22;35.60;102205.72;4958770;28;45269;-64
2023/02/14 19:31:39;;;;;;;;;24.75;22.25;;;;;23.21;35.41;102203.16;4955557;28;45336;-64
2023/02/14 19:34:07;;;;;;;;;27.75;23.00;;;;;23.21;35.58;102200.47;4952883;28;45447;-64
2023/02/14 19:36:35;;;;;;;;;23.25;20.75;;;;;23.20;35.45;102196.94;4957587;28;46040;-65
2023/02/14 19:39:00;;;;;;;;;31.00;25.75;;;;;23.20;35.52;102198.78;4952821;28;45570;-66
2023/02/14 19:41:29;;;;;;;;;24.00;20.25;;;;;23.19;35.61;102197.03;4965061;28;47857;-73
2023/02/14 19:43:56;;;;;;;;;29.00;22.25;;;;;23.19;35.76;102189.88;4952615;28;45525;-72
2023/02/14 19:46:23;;;;;;;;;26.50;23.50;;;;;23.19;36.09;102192.53;4955593;28;45745;-74
2023/02/14 19:48:48;;;;;;;;;28.50;24.25;;;;;23.20;36.02;102194.28;4955016;28;45473;-64
2023/02/14 19:51:15;;;;;;;;;25.50;23.00;;;;;23.19;35.99;102181.84;4954702;28;63749;-65
2023/02/14 19:53:41;;;;;;;;;30.75;23.75;;;;;23.21;36.09;102185.28;4956036;28;45439;-64
2023/02/14 19:56:06;;;;;;;;;22.25;20.25;;;;;23.24;36.26;102190.47;4951154;28;46286;-70
2023/02/14 19:58:31;;;;;;;;;23.00;17.50;;;;;23.26;36.29;102185.03;4954359;28;61052;-66
2023/02/14 20:00:58;;;;;;;;;26.00;23.00;;;;;23.27;36.87;102186.78;4956752;28;45469;-66
2023/02/14 20:03:24;;;;;;;;;28.50;25.00;;;;;23.28;36.87;102180.47;4963455;28;45319;-73
2023/02/14 20:05:49;;;;;;;;;25.50;23.75;;;;;23.31;36.63;102174.97;4952604;28;45996;-67
2023/02/14 20:08:15;;;;;;;;;27.00;25.00;;;;;23.33;37.17;102172.19;4955104;28;45581;-69
2023/02/14 20:10:40;;;;;;;;;25.50;22.00;;;;;23.34;37.41;102171.22;4958967;28;45605;-76
2023/02/14 20:13:06;;;;;;;;;30.00;27.00;;;;;23.34;37.49;102166.78;4956030;28;47337;-73
2023/02/14 20:15:33;;;;;;;;;28.00;23.50;;;;;23.34;38.02;102169.44;4955032;28;45450;-73
2023/02/14 20:17:58;;;;;;;;;28.75;24.50;;;;;23.31;37.91;102151.75;4956646;28;46065;-71
2023/02/14 20:20:24;;;;;;;;;30.00;27.00;;;;;23.35;38.25;102164.94;4952233;28;45485;-71
2023/02/14 20:22:49;;;;;;;;;31.25;26.75;;;;;23.32;38.53;102155.31;4955266;28;45394;-72
2023/02/14 20:25:14;;;;;;;;;32.25;29.75;;;;;23.33;38.62;102151.69;4955846;27;46779;-71
2023/02/14 20:27:40;;;;;;;;;29.00;25.50;;;;;23.34;39.06;102150.75;4947612;28;54369;-69
2023/02/14 20:30:06;;;;;;;;;28.00;24.00;;;;;23.34;38.92;102149.88;4954397;28;45557;-68
2023/02/14 20:32:32;;;;;;;;;27.50;26.00;;;;;23.33;38.36;102153.50;4973864;28;45309;-67
2023/02/14 20:34:58;;;;;;;;;28.00;26.75;;;;;23.33;38.96;102154.34;4953365;28;45977;-67
2023/02/14 20:37:23;;;;;;;;;31.00;25.00;;;;;23.32;39.10;102147.31;4953600;28;45313;-67
2023/02/14 20:39:48;;;;;;;;;32.25;25.25;;;;;23.31;39.01;102148.25;4955366;28;45422;-67
2023/02/14 20:42:14;;;;;;;;;31.00;26.00;;;;;23.30;39.22;102150.06;4951253;28;65547;-67
2023/02/14 20:44:40;;;;;;;;;31.75;29.00;;;;;23.29;39.08;102140.31;4954914;28;45292;-67
2023/02/14 20:47:06;;;;;;;;;28.50;22.50;;;;;23.29;38.94;102150.16;4958002;28;45318;-67
2023/02/14 20:49:31;;;;;;;;;29.50;25.75;;;;;23.29;38.78;102148.34;4957209;28;45306;-67
2023/02/14 20:51:57;;;;;;;;;31.00;27.00;;;;;23.28;38.37;102143.97;4952268;27;45418;-67
2023/02/14 20:54:24;;;;;;;;;30.50;25.75;;;;;23.26;38.89;102137.81;4949357;28;46432;-67
2023/02/14 20:56:51;;;;;;;;;27.00;25.25;;;;;23.28;38.80;102143.06;4958841;28;45739;-67
2023/02/14 20:59:23;;;;;;;;;26.75;24.25;;;;;23.26;38.95;102137.81;4950797;28;45332;-67
2023/02/14 21:01:48;;;;;;;;;32.75;27.25;;;;;23.27;38.57;102138.69;4956106;28;45482;-67
2023/02/14 21:04:15;;;;;;;;;28.00;22.75;;;;;23.25;38.32;102141.47;4950875;28;45531;-67
2023/02/14 21:06:40;;;;;;;;;30.75;25.50;;;;;23.24;38.59;102137.06;4949380;28;45880;-66
2023/02/14 21:09:07;;;;;;;;;28.75;21.75;;;;;23.21;38.60;102139.91;4968371;28;45364;-66
2023/02/14 21:11:32;;;;;;;;;31.75;27.50;;;;;23.22;38.44;102135.44;4962508;28;45671;-67
2023/02/14 21:13:59;;;;;;;;;31.00;24.50;;;;;23.20;38.19;102135.53;4951927;28;47088;-67
2023/02/14 21:16:25;;;;;;;;;25.25;24.50;;;;;23.20;37.86;102132.84;4951121;28;45484;-69
2023/02/14 21:18:57;;;;;;;;;28.50;25.25;;;;;23.20;38.00;102129.31;4949493;28;45604;-66
2023/02/14 21:21:31;;;;;;;;;26.75;23.25;;;;;23.20;38.01;102138.19;4957051;28;45567;-66
2023/02/14 21:23:57;;;;;;;;;28.50;22.25;;;;;23.19;37.79;102136.44;4951546;28;46826;-66
2023/02/14 21:26:23;;;;;;;;;33.25;26.50;;;;;23.19;38.03;102135.59;4949716;28;45766;-67
2023/02/14 21:28:48;;;;;;;;;31.25;25.75;;;;;23.17;37.97;102135.69;4949237;28;45685;-67
2023/02/14 21:31:16;;;;;;;;;26.50;22.75;;;;;23.18;38.16;102136.53;4957815;28;45412;-67
2023/02/14 21:33:42;;;;;;;;;29.00;23.75;;;;;23.17;38.05;102127.69;4953210;28;46323;-67
2023/02/14 21:36:09;;;;;;;;;29.00;24.50;;;;;23.15;37.54;102137.59;4952218;28;45482;-67
2023/02/14 21:38:35;;;;;;;;;23.50;23.00;;;;;23.14;37.54;102127.84;4954205;28;45360;-67
2023/02/14 21:41:03;;;;;;;;;29.75;24.25;;;;;23.13;37.58;102123.47;4956208;28;45591;-67
2023/02/14 21:43:32;;;;;;;;;27.25;26.00;;;;;23.11;37.52;102128.91;4951966;28;46381;-67
2023/02/14 21:46:00;;;;;;;;;28.75;25.50;;;;;23.10;37.44;102124.50;4950740;28;45533;-67
2023/02/14 21:51:10;;;;;;;;;30.25;25.50;;;;;23.08;37.75;102131.75;4954967;28;45490;-67
2023/02/14 21:53:36;;;;;;;;;29.50;24.75;;;;;23.06;37.38;102125.63;4943969;28;47260;-66
2023/02/14 21:56:09;;;;;;;;;30.25;25.50;;;;;23.05;37.57;102121.22;4951299;28;45711;-66
2023/02/14 21:58:36;;;;;;;;;28.00;24.00;;;;;23.05;37.75;102123.91;4954534;28;45487;-66
2023/02/14 22:01:01;;;;;;;;;23.50;23.50;;;;;23.03;37.16;102123.09;4957387;28;45540;-67
2023/02/14 22:03:27;;;;;;;;;32.00;25.00;;;;;23.02;37.28;102116.06;4949142;28;46489;-67
2023/02/14 22:06:00;;;;;;;;;26.50;26.00;;;;;23.01;37.01;102110.78;4954262;28;45845;-67
2023/02/14 22:08:25;;;;;;;;;33.50;27.25;;;;;23.00;37.09;102107.28;4952017;28;45395;-67
2023/02/14 22:10:50;;;;;;;;;32.25;27.75;;;;;22.99;37.15;102108.22;4953788;28;45383;-66
2023/02/14 22:13:16;;;;;;;;;36.50;29.75;;;;;22.98;37.52;102102.97;4953429;28;60276;-67
2023/02/14 22:15:41;;;;;;;;;32.50;26.50;;;;;22.97;37.12;102101.25;4953255;28;45320;-67
2023/02/14 22:18:06;;;;;;;;;33.75;29.00;;;;;22.96;36.89;102102.19;4950828;28;56316;-67
2023/02/14 22:20:32;;;;;;;;;34.50;29.25;;;;;22.95;36.78;102104.00;4957486;28;45498;-67
2023/02/14 22:22:57;;;;;;;;;34.75;30.00;;;;;22.93;36.92;102100.56;4955385;28;59199;-66
2023/02/14 22:25:23;;;;;;;;;32.25;26.50;;;;;22.91;36.79;102105.09;4952617;28;56603;-66
2023/02/14 22:27:49;;;;;;;;;34.25;30.00;;;;;22.90;37.05;102106.94;4952105;28;45482;-66
2023/02/14 22:30:14;;;;;;;;;34.00;30.25;;;;;22.88;36.91;102103.50;4954669;28;67398;-66